Time;durP1;ratioP1;P1;durP2;ratioP2;P2;SDS_P1;SDS_P2;PMS_P1;PMS_P2;Temp;Humidity;BMP_temperature;BMP_pressure;BME280_temperature;BME280_humidity;BME280_pressure;Samples;Min_cycle;Max_cycle;Signal;HPM_P1;HPM_P2
2021/08/31 00:02:37;;;;;;;0.40;0.20;;;12.70;1.40;;;14.02;100.00;95507.02;645545;212;33031;-71
2021/08/31 00:07:53;;;;;;;0.40;0.20;;;12.70;1.40;;;13.97;100.00;95509.66;646735;212;31474;-71
2021/08/31 00:10:35;;;;;;;0.40;0.20;;;12.70;1.40;;;13.96;100.00;95509.43;645799;216;31493;-71
2021/08/31 00:13:16;;;;;;;0.40;0.20;;;12.60;1.40;;;13.94;100.00;95511.33;646713;216;31845;-71
2021/08/31 00:16:01;;;;;;;0.30;0.20;;;12.60;1.40;;;13.88;100.00;95512.98;647348;212;31706;-70
2021/08/31 00:18:43;;;;;;;0.40;0.20;;;12.60;1.40;;;13.86;100.00;95517.42;646140;212;31516;-72
2021/08/31 00:21:27;;;;;;;0.40;0.20;;;12.60;1.40;;;13.90;100.00;95517.44;646359;212;31491;-72
2021/08/31 00:24:09;;;;;;;0.40;0.20;;;12.60;1.40;;;13.86;100.00;95519.97;619155;226;32397;-72
2021/08/31 00:26:51;;;;;;;0.40;0.20;;;12.60;1.40;;;13.82;100.00;95518.28;646200;212;31609;-73
2021/08/31 00:29:33;;;;;;;0.40;0.20;;;12.60;1.40;;;13.89;100.00;95520.05;646675;216;36820;-73
2021/08/31 00:32:14;;;;;;;0.40;0.20;;;12.60;1.40;;;13.93;100.00;95522.47;646022;216;31563;-72
2021/08/31 00:35:51;;;;;;;0.40;0.20;;;12.60;1.40;;;13.87;100.00;95523.09;647373;212;31496;-72
2021/08/31 00:38:36;;;;;;;0.40;0.20;;;12.60;1.40;;;13.86;100.00;95527.73;647115;216;31534;-72
2021/08/31 00:41:22;;;;;;;0.40;0.20;;;12.60;1.40;;;13.84;100.00;95525.07;639534;215;31696;-73
2021/08/31 00:44:07;;;;;;;0.40;0.20;;;12.60;1.40;;;13.82;100.00;95531.56;646961;216;36202;-72
2021/08/31 00:46:49;;;;;;;0.40;0.20;;;12.50;1.40;;;13.76;100.00;95527.66;646733;212;32055;-72
2021/08/31 00:49:33;;;;;;;0.40;0.20;;;12.50;1.40;;;13.76;100.00;95533.61;646087;212;31639;-73
2021/08/31 00:52:17;;;;;;;0.40;0.20;;;12.40;1.40;;;13.75;100.00;95532.25;646320;216;35503;-72
2021/08/31 00:54:59;;;;;;;0.40;0.20;;;12.40;1.40;;;13.71;100.00;95543.66;646916;216;31469;-73
2021/08/31 00:57:41;;;;;;;0.40;0.20;;;12.40;1.40;;;13.72;100.00;95541.11;646821;212;36925;-72
2021/08/31 01:00:22;;;;;;;0.40;0.20;;;12.40;1.40;;;13.72;100.00;95547.68;646960;212;31688;-72
2021/08/31 01:03:05;;;;;;;0.40;0.20;;;12.40;1.40;;;13.75;100.00;95550.89;646795;213;38255;-72
2021/08/31 01:05:47;;;;;;;0.40;0.20;;;12.50;1.40;;;13.70;100.00;95550.34;645935;216;31608;-70
2021/08/31 01:08:29;;;;;;;0.40;0.20;;;12.40;1.40;;;13.66;100.00;95550.42;647493;216;42067;-72
2021/08/31 01:11:13;;;;;;;0.40;0.20;;;12.40;1.40;;;13.62;100.00;95552.13;646879;212;31785;-72
2021/08/31 01:13:55;;;;;;;0.40;0.20;;;12.40;1.40;;;13.65;100.00;95549.09;618223;222;38619;-72
2021/08/31 01:16:37;;;;;;;0.40;0.30;;;12.40;1.40;;;13.63;100.00;95550.89;646850;216;31492;-72
2021/08/31 01:19:18;;;;;;;0.40;0.20;;;12.40;1.40;;;13.63;100.00;95551.95;645264;212;39736;-71
2021/08/31 01:22:06;;;;;;;0.40;0.20;;;12.40;1.40;;;13.61;100.00;95549.59;646750;212;31462;-71
2021/08/31 01:24:48;;;;;;;0.40;0.20;;;12.40;1.40;;;13.60;100.00;95548.21;645690;216;34977;-72
2021/08/31 01:27:30;;;;;;;0.40;0.20;;;12.40;1.40;;;13.65;100.00;95550.07;647718;212;42932;-71
2021/08/31 01:30:13;;;;;;;0.40;0.20;;;12.40;1.40;;;13.67;100.00;95549.41;646575;216;32108;-72
2021/08/31 01:32:54;;;;;;;0.40;0.30;;;12.40;1.40;;;13.68;100.00;95551.48;646090;212;39356;-71
2021/08/31 01:35:50;;;;;;;;;;;12.40;1.40;;;13.67;100.00;95551.66;651547;216;24724;-71
2021/08/31 01:38:35;;;;;;;;;;;12.40;1.40;;;13.62;100.00;95555.66;653127;216;24823;-72
2021/08/31 01:41:16;;;;;;;;;;;12.40;1.40;;;13.61;100.00;95553.80;646362;212;25410;-73
2021/08/31 01:43:57;;;;;;;;;;;12.40;1.40;;;13.63;100.00;95552.08;653412;212;25468;-73
2021/08/31 01:46:42;;;;;;;;;;;12.40;1.40;;;13.65;100.00;95553.50;654360;216;25028;-74
2021/08/31 01:49:23;;;;;;;;;;;12.40;1.40;;;13.65;100.00;95554.05;652761;213;24831;-73
2021/08/31 01:52:05;;;;;;;;;;;12.40;1.40;;;13.59;100.00;95555.92;653335;216;24829;-73
2021/08/31 01:54:46;;;;;;;;;;;12.40;1.40;;;13.56;100.00;95552.18;653439;212;24850;-72
2021/08/31 01:57:28;;;;;;;;;;;12.40;1.40;;;13.53;100.00;95556.81;649005;217;24831;-74
2021/08/31 02:00:10;;;;;;;;;;;12.40;1.40;;;13.60;100.00;95553.19;653063;212;25534;-73
2021/08/31 02:02:51;;;;;;;;;;;12.40;1.40;;;13.68;100.00;95561.53;653463;216;24804;-72
2021/08/31 02:05:32;;;;;;;;;;;12.40;1.40;;;13.61;100.00;95556.78;652364;216;25039;-73
2021/08/31 02:08:14;;;;;;;;;;;12.40;1.40;;;13.63;100.00;95557.66;654289;216;24814;-72
2021/08/31 02:10:55;;;;;;;;;;;12.40;1.40;;;13.62;100.00;95554.34;653942;212;25338;-72
2021/08/31 02:13:36;;;;;;;;;;;12.40;1.40;;;13.67;100.00;95554.44;653340;212;24830;-73
2021/08/31 02:16:20;;;;;;;;;;;12.40;1.40;;;13.68;100.00;95553.85;653034;212;24837;-72
2021/08/31 02:19:01;;;;;;;;;;;12.40;1.40;;;13.64;100.00;95555.61;653961;216;24788;-72
2021/08/31 02:21:46;;;;;;;;;;;12.40;1.40;;;13.66;100.00;95555.81;652050;216;24818;-71
2021/08/31 02:24:27;;;;;;;;;;;12.40;1.40;;;13.65;100.00;95562.00;653722;212;24949;-71
2021/08/31 02:27:11;;;;;;;;;;;12.40;1.40;;;13.64;100.00;95559.78;654806;216;24833;-72
2021/08/31 02:29:53;;;;;;;;;;;12.40;1.40;;;13.64;100.00;95564.60;652849;216;24820;-72
2021/08/31 02:32:35;;;;;;;;;;;12.40;1.40;;;13.67;100.00;95562.22;647162;217;24745;-72
2021/08/31 02:35:51;;;;;;;0.40;0.20;;;12.40;1.40;;;13.65;100.00;95562.55;646220;212;42099;-71
2021/08/31 02:38:36;;;;;;;0.40;0.20;;;12.40;1.40;;;13.73;100.00;95562.58;645459;216;31467;-71
2021/08/31 02:41:17;;;;;;;0.40;0.20;;;12.40;1.40;;;13.72;100.00;95561.17;647176;216;31658;-71
2021/08/31 02:43:59;;;;;;;0.40;0.20;;;12.40;1.40;;;13.68;100.00;95565.50;645479;212;31510;-71
2021/08/31 02:46:41;;;;;;;0.40;0.20;;;12.40;1.40;;;13.69;100.00;95565.92;646619;216;36739;-71
2021/08/31 02:49:22;;;;;;;0.40;0.20;;;12.40;1.40;;;13.77;100.00;95566.27;647116;216;31728;-71
2021/08/31 02:52:05;;;;;;;0.40;0.20;;;12.40;1.40;;;13.69;100.00;95565.44;646505;212;37593;-70
2021/08/31 02:54:46;;;;;;;0.40;0.20;;;12.40;1.40;;;13.66;100.00;95569.50;618425;226;31838;-71
2021/08/31 02:57:28;;;;;;;0.40;0.20;;;12.40;1.40;;;13.69;100.00;95564.70;642405;217;31503;-72
2021/08/31 03:00:17;;;;;;;0.40;0.20;;;12.30;1.40;;;13.70;100.00;95567.95;646728;216;33217;-71
2021/08/31 03:02:52;;;;;;;0.40;0.20;;;12.30;1.40;;;13.67;100.00;95573.28;648494;216;31584;-71
2021/08/31 03:05:34;;;;;;;0.40;0.20;;;12.30;1.40;;;13.67;100.00;95568.66;646536;212;33539;-70
2021/08/31 03:08:16;;;;;;;0.40;0.20;;;12.30;1.40;;;13.67;100.00;95566.95;645416;212;33973;-71
2021/08/31 03:10:57;;;;;;;0.40;0.20;;;12.30;1.40;;;13.59;100.00;95566.01;620639;226;39788;-71
2021/08/31 03:13:39;;;;;;;0.40;0.20;;;12.20;1.40;;;13.47;100.00;95570.38;647102;212;31521;-72
2021/08/31 03:18:55;;;;;;;0.40;0.20;;;12.20;1.40;;;13.44;100.00;95571.94;645874;212;31496;-71
2021/08/31 03:21:40;;;;;;;0.40;0.20;;;12.20;1.40;;;13.43;100.00;95574.89;647180;216;35179;-71
2021/08/31 03:24:21;;;;;;;0.40;0.20;;;12.20;1.40;;;13.47;100.00;95577.92;645151;216;31740;-71
2021/08/31 03:27:03;;;;;;;0.40;0.20;;;12.20;1.40;;;13.42;100.00;95582.52;645912;215;33436;-71
2021/08/31 03:29:53;;;;;;;0.40;0.20;;;12.20;1.40;;;13.46;100.00;95586.06;619235;226;31838;-71
2021/08/31 03:32:35;;;;;;;0.40;0.20;;;12.20;1.40;;;13.48;100.00;95582.84;647449;212;34179;-72
2021/08/31 03:35:51;;;;;;;0.40;0.20;;;12.20;1.40;;;13.55;100.00;95588.45;645361;216;31457;-71
2021/08/31 03:38:33;;;;;;;0.40;0.20;;;12.20;1.40;;;13.53;100.00;95587.14;647467;212;34456;-72
2021/08/31 03:41:15;;;;;;;0.40;0.20;;;12.20;1.40;;;13.50;100.00;95587.52;644565;216;35059;-72
2021/08/31 03:43:56;;;;;;;0.40;0.20;;;12.10;1.40;;;13.43;100.00;95590.88;645938;216;31567;-72
2021/08/31 03:46:38;;;;;;;0.40;0.20;;;12.10;1.40;;;13.53;100.00;95590.69;646153;216;37631;-72
2021/08/31 03:49:20;;;;;;;0.40;0.20;;;12.10;1.40;;;13.42;100.00;95593.58;646294;216;42530;-73
2021/08/31 03:52:01;;;;;;;0.40;0.20;;;12.10;1.40;;;13.18;100.00;95595.83;647570;212;32709;-72
2021/08/31 03:54:43;;;;;;;0.30;0.20;;;12.00;1.40;;;13.18;100.00;95600.96;646148;212;33666;-72
2021/08/31 03:57:25;;;;;;;0.40;0.30;;;12.00;1.40;;;13.20;100.00;95605.22;645237;212;31514;-72
2021/08/31 04:00:07;;;;;;;0.40;0.20;;;12.00;1.40;;;13.23;100.00;95601.81;645745;216;36644;-72
2021/08/31 04:02:49;;;;;;;0.40;0.20;;;12.00;1.40;;;13.26;100.00;95608.47;646090;212;31504;-72
2021/08/31 04:05:30;;;;;;;0.40;0.20;;;12.00;1.40;;;13.32;100.00;95614.89;646141;216;32934;-72
2021/08/31 04:08:12;;;;;;;0.40;0.20;;;12.00;1.40;;;13.29;100.00;95614.42;646179;216;31500;-72
2021/08/31 04:10:57;;;;;;;0.40;0.20;;;12.00;1.40;;;13.30;100.00;95618.39;646752;212;31540;-71
2021/08/31 04:13:38;;;;;;;0.40;0.20;;;12.00;1.40;;;13.26;100.00;95624.97;645907;213;36930;-73
2021/08/31 04:16:20;;;;;;;0.40;0.20;;;12.00;1.40;;;13.36;100.00;95627.73;646284;212;31513;-72
2021/08/31 04:19:05;;;;;;;0.40;0.20;;;12.00;1.40;;;13.37;100.00;95630.09;646386;212;32109;-71
2021/08/31 04:21:46;;;;;;;0.40;0.20;;;12.00;1.40;;;13.39;100.00;95636.12;646598;212;42667;-72
2021/08/31 04:24:28;;;;;;;0.40;0.20;;;12.00;1.40;;;13.35;100.00;95635.83;646811;216;32238;-72
2021/08/31 04:27:12;;;;;;;0.40;0.20;;;12.00;1.40;;;13.41;100.00;95638.34;648063;212;32471;-72
2021/08/31 04:29:54;;;;;;;0.40;0.20;;;12.00;1.40;;;13.42;100.00;95641.58;645891;216;42118;-71
2021/08/31 04:32:39;;;;;;;0.40;0.20;;;12.00;1.40;;;13.38;100.00;95645.66;645831;216;31495;-72
2021/08/31 04:35:51;;;;;;;0.40;0.20;;;12.00;1.40;;;13.41;100.00;95642.66;645179;216;32262;-73
2021/08/31 04:38:35;;;;;;;0.40;0.20;;;12.00;1.40;;;13.34;100.00;95646.52;642682;217;31455;-73
2021/08/31 04:41:17;;;;;;;0.40;0.20;;;12.00;1.40;;;13.34;100.00;95647.50;639649;216;34061;-73
2021/08/31 04:43:59;;;;;;;0.40;0.20;;;12.00;1.40;;;13.34;100.00;95645.12;645832;216;36909;-73
2021/08/31 04:46:40;;;;;;;0.40;0.20;;;12.00;1.40;;;13.31;100.00;95644.60;646717;212;36971;-72
2021/08/31 04:49:22;;;;;;;0.40;0.20;;;11.90;1.40;;;13.35;100.00;95646.83;645863;216;31958;-71
2021/08/31 04:52:04;;;;;;;0.40;0.20;;;12.00;1.40;;;13.46;100.00;95645.06;646719;212;33388;-72
2021/08/31 04:54:46;;;;;;;0.40;0.20;;;12.00;1.40;;;13.39;100.00;95645.48;646807;216;31598;-72
2021/08/31 04:57:31;;;;;;;0.40;0.20;;;12.00;1.40;;;13.51;100.00;95649.72;646107;212;36057;-71
2021/08/31 05:00:13;;;;;;;0.40;0.20;;;12.00;1.40;;;13.40;100.00;95653.62;644942;212;42137;-71
2021/08/31 05:02:56;;;;;;;0.40;0.20;;;12.00;1.40;;;13.36;100.00;95651.81;647255;212;38818;-72
2021/08/31 05:05:36;;;;;;;0.40;0.20;;;12.00;1.40;;;13.47;100.00;95652.42;646915;212;31473;-72
2021/08/31 05:08:18;;;;;;;0.40;0.20;;;12.00;1.40;;;13.41;100.00;95655.28;646532;212;42183;-72
2021/08/31 05:10:59;;;;;;;0.40;0.20;;;12.10;1.40;;;13.33;100.00;95658.00;647756;216;31475;-72
2021/08/31 05:13:47;;;;;;;0.40;0.20;;;12.10;1.40;;;13.41;100.00;95657.08;647227;216;36273;-74
2021/08/31 05:16:35;;;;;;;0.40;0.20;;;12.10;1.40;;;13.52;100.00;95657.63;644437;216;31567;-72
2021/08/31 05:19:16;;;;;;;0.40;0.20;;;12.10;1.40;;;13.64;100.00;95661.05;646796;212;33064;-71
2021/08/31 05:21:58;;;;;;;0.40;0.20;;;12.20;1.40;;;13.59;100.00;95658.03;646907;216;31814;-72
2021/08/31 05:24:46;;;;;;;0.40;0.20;;;12.20;1.40;;;13.53;100.00;95661.73;644624;216;39483;-71
2021/08/31 05:27:24;;;;;;;0.40;0.20;;;12.20;1.40;;;13.58;100.00;95667.05;646889;212;31527;-71
2021/08/31 05:30:07;;;;;;;0.40;0.20;;;12.20;1.40;;;13.64;100.00;95668.52;645724;216;40372;-72
2021/08/31 05:32:49;;;;;;;0.40;0.20;;;12.20;1.40;;;13.69;100.00;95669.90;646690;216;31458;-71
2021/08/31 05:35:51;;;;;;;0.40;0.20;;;12.30;1.40;;;13.56;100.00;95671.73;647031;212;31805;-72
2021/08/31 05:38:33;;;;;;;0.40;0.20;;;12.30;1.40;;;13.57;100.00;95674.25;645505;212;42186;-72
2021/08/31 05:41:15;;;;;;;0.40;0.20;;;12.40;1.40;;;13.43;100.00;95675.97;638616;212;31632;-72
2021/08/31 05:43:59;;;;;;;0.40;0.30;;;12.40;1.40;;;13.37;100.00;95673.72;646791;216;42607;-70
2021/08/31 05:46:41;;;;;;;0.40;0.20;;;12.40;1.40;;;13.41;100.00;95677.88;645817;213;32567;-71
2021/08/31 05:49:27;;;;;;;0.40;0.20;;;12.40;1.40;;;13.43;100.00;95678.59;646708;212;42323;-72
2021/08/31 05:52:14;;;;;;;0.40;0.20;;;12.50;1.40;;;13.58;100.00;95681.06;646360;216;35256;-73
2021/08/31 05:55:02;;;;;;;0.40;0.20;;;12.50;1.40;;;13.60;100.00;95684.33;646534;216;31507;-73
2021/08/31 05:57:44;;;;;;;0.40;0.20;;;12.60;1.40;;;13.56;100.00;95686.21;645974;216;34847;-72
2021/08/31 06:00:25;;;;;;;0.40;0.20;;;12.60;1.40;;;13.73;100.00;95682.19;646679;216;31465;-71
2021/08/31 06:03:09;;;;;;;0.40;0.20;;;12.70;1.40;;;13.64;100.00;95687.09;645114;212;42758;-72
2021/08/31 06:05:51;;;;;;;0.40;0.20;;;12.70;1.40;;;13.65;100.00;95691.48;645953;216;32369;-71
2021/08/31 06:08:33;;;;;;;0.40;0.20;;;12.70;1.40;;;13.67;100.00;95689.68;646770;212;42735;-72
2021/08/31 06:11:22;;;;;;;0.40;0.20;;;12.70;1.40;;;13.72;100.00;95688.77;647137;216;42977;-74
2021/08/31 06:14:04;;;;;;;0.40;0.20;;;12.80;1.40;;;13.74;100.00;95695.41;646977;216;42257;-71
2021/08/31 06:16:46;;;;;;;0.40;0.20;;;12.80;1.40;;;13.88;100.00;95687.33;645967;216;42477;-71
2021/08/31 06:19:27;;;;;;;0.40;0.20;;;12.90;1.40;;;13.88;100.00;95687.70;646631;213;31536;-71
2021/08/31 06:22:15;;;;;;;0.40;0.30;;;12.90;1.40;;;14.12;100.00;95694.52;645573;216;42102;-73
2021/08/31 06:25:03;;;;;;;0.40;0.20;;;13.00;1.40;;;14.14;100.00;95698.19;646741;216;42158;-71
2021/08/31 06:27:44;;;;;;;0.40;0.20;;;13.00;1.40;;;14.23;100.00;95702.03;646258;212;42083;-71
2021/08/31 06:30:26;;;;;;;0.40;0.30;;;13.00;1.40;;;14.22;100.00;95707.67;646763;216;42179;-71
2021/08/31 06:35:51;;;;;;;0.40;0.20;;;13.00;1.40;;;14.41;100.00;95708.34;646160;216;31455;-72
2021/08/31 06:38:33;;;;;;;0.40;0.30;;;13.10;1.40;;;14.42;100.00;95711.27;645903;212;42997;-71
2021/08/31 06:41:15;;;;;;;0.40;0.20;;;13.20;1.40;;;14.58;100.00;95707.92;647538;212;31501;-72
2021/08/31 06:43:56;;;;;;;0.40;0.20;;;13.20;1.40;;;14.52;100.00;95713.99;646116;216;31586;-71
2021/08/31 06:46:38;;;;;;;0.40;0.20;;;13.20;1.40;;;14.62;100.00;95711.41;645917;216;31473;-71
2021/08/31 06:51:57;;;;;;;0.40;0.30;;;13.30;1.40;;;14.50;100.00;95714.20;646726;216;32280;-72
2021/08/31 06:54:39;;;;;;;0.40;0.20;;;13.20;1.40;;;14.59;100.00;95714.46;645041;216;31502;-72
2021/08/31 06:57:23;;;;;;;0.40;0.20;;;13.30;1.40;;;14.62;100.00;95711.20;645881;216;32096;-72
2021/08/31 07:00:07;;;;;;;0.40;0.20;;;13.30;1.40;;;14.65;100.00;95711.27;646082;212;32078;-71
2021/08/31 07:02:49;;;;;;;0.40;0.20;;;13.30;1.40;;;14.65;100.00;95714.59;645890;212;32304;-71
2021/08/31 07:05:34;;;;;;;0.40;0.20;;;13.20;1.40;;;14.55;100.00;95717.98;645768;216;31566;-71
2021/08/31 07:08:15;;;;;;;0.40;0.20;;;13.20;1.40;;;14.62;100.00;95717.27;645713;216;31651;-71
2021/08/31 07:10:57;;;;;;;0.40;0.20;;;13.20;1.40;;;14.55;100.00;95717.98;648007;212;31501;-72
2021/08/31 07:13:39;;;;;;;0.40;0.20;;;13.10;1.40;;;14.39;100.00;95721.56;646634;216;32061;-71
2021/08/31 07:16:20;;;;;;;0.40;0.20;;;13.10;1.40;;;14.19;100.00;95721.51;646795;216;32011;-71
2021/08/31 07:19:02;;;;;;;0.40;0.20;;;13.00;1.40;;;14.20;100.00;95724.17;619251;222;32582;-71
2021/08/31 07:21:45;;;;;;;0.40;0.20;;;12.90;1.40;;;14.13;100.00;95726.28;618135;226;32503;-71
2021/08/31 07:24:25;;;;;;;0.40;0.20;;;12.90;1.40;;;14.09;100.00;95731.45;648963;212;42703;-71
2021/08/31 07:27:07;;;;;;;0.40;0.20;;;12.90;1.40;;;14.09;100.00;95736.80;645657;212;31579;-71
2021/08/31 07:29:49;;;;;;;0.40;0.20;;;12.90;1.40;;;14.37;100.00;95732.69;645674;216;32963;-72
2021/08/31 07:32:34;;;;;;;0.40;0.20;;;13.00;1.40;;;14.27;100.00;95737.22;646896;212;31440;-71
2021/08/31 07:35:51;;;;;;;0.40;0.20;;;13.10;1.40;;;14.28;100.00;95739.20;618382;222;33649;-71
2021/08/31 07:38:33;;;;;;;0.40;0.20;;;13.10;1.40;;;14.37;100.00;95734.81;646788;216;31686;-71
2021/08/31 07:41:15;;;;;;;0.40;0.20;;;13.20;1.40;;;14.56;100.00;95733.47;639080;216;31662;-72
2021/08/31 07:43:56;;;;;;;0.40;0.20;;;13.50;1.40;;;14.72;100.00;95735.84;647244;212;31464;-71
2021/08/31 07:46:40;;;;;;;0.40;0.20;;;13.70;1.40;;;14.87;100.00;95738.23;618871;226;42501;-70
2021/08/31 07:49:20;;;;;;;0.40;0.20;;;13.80;1.40;;;15.08;100.00;95735.23;645734;212;31834;-71
2021/08/31 07:52:01;;;;;;;0.40;0.20;;;14.00;1.40;;;15.29;100.00;95735.78;618371;222;31818;-71
2021/08/31 07:54:43;;;;;;;0.40;0.20;;;14.00;1.40;;;15.13;100.00;95741.81;647401;212;31467;-71
2021/08/31 07:57:27;;;;;;;0.50;0.40;;;14.10;1.40;;;15.10;100.00;95741.97;646166;216;31540;-70
2021/08/31 08:00:07;;;;;;;0.40;0.20;;;13.80;1.40;;;14.98;100.00;95754.53;645730;213;31481;-71
2021/08/31 08:02:49;;;;;;;0.40;0.30;;;13.60;1.40;;;14.98;100.00;95757.34;647334;216;31471;-71
2021/08/31 08:05:30;;;;;;;0.40;0.20;;;13.60;1.40;;;14.94;100.00;95760.84;644527;216;31469;-71
2021/08/31 08:10:46;;;;;;;0.40;0.20;;;13.50;1.40;;;14.85;100.00;95763.09;647150;212;31467;-72
2021/08/31 08:13:28;;;;;;;0.40;0.20;;;13.50;1.40;;;14.84;100.00;95769.52;646270;216;31525;-71
2021/08/31 08:16:16;;;;;;;0.40;0.20;;;13.60;1.40;;;14.90;100.00;95772.17;647951;212;31621;-73
2021/08/31 08:19:04;;;;;;;0.40;0.20;;;13.80;1.40;;;15.08;100.00;95774.94;641739;219;43055;-70
2021/08/31 08:21:45;;;;;;;0.40;0.20;;;13.90;1.40;;;15.14;100.00;95780.58;645504;212;31787;-70
2021/08/31 08:24:27;;;;;;;0.40;0.20;;;14.00;1.40;;;15.30;100.00;95776.48;650068;212;31979;-70
2021/08/31 08:27:09;;;;;;;0.40;0.20;;;14.00;1.40;;;15.16;100.00;95779.68;647002;212;31979;-71
2021/08/31 08:29:50;;;;;;;0.40;0.20;;;13.80;1.40;;;15.02;100.00;95782.86;648784;212;32549;-71
2021/08/31 08:32:35;;;;;;;0.40;0.20;;;13.70;1.40;;;14.95;100.00;95787.52;644528;216;31865;-71
2021/08/31 08:35:51;;;;;;;0.40;0.20;;;13.70;1.40;;;15.00;100.00;95789.30;647172;212;31605;-70
2021/08/31 08:38:33;;;;;;;0.40;0.20;;;13.70;1.40;;;14.94;100.00;95789.46;647669;212;31640;-71
2021/08/31 08:41:14;;;;;;;0.40;0.20;;;13.60;1.40;;;14.99;100.00;95789.28;639504;212;42349;-70
2021/08/31 08:43:59;;;;;;;0.40;0.20;;;13.70;1.40;;;15.23;100.00;95791.95;616879;222;32533;-71
2021/08/31 08:46:38;;;;;;;0.40;0.20;;;13.90;1.40;;;15.20;100.00;95792.17;648877;212;31470;-71
2021/08/31 08:49:19;;;;;;;0.40;0.20;;;13.90;1.40;;;15.26;100.00;95795.22;648489;216;31473;-71
2021/08/31 08:52:03;;;;;;;0.40;0.20;;;14.00;1.40;;;15.32;100.00;95800.51;649327;216;31534;-70
2021/08/31 08:57:23;;;;;;;0.40;0.20;;;14.40;1.40;;;15.77;100.00;95796.53;647348;212;31463;-70
2021/08/31 09:00:06;;;;;;;0.40;0.20;;;14.60;1.40;;;16.27;100.00;95794.26;645957;216;31649;-72
2021/08/31 09:02:47;;;;;;;0.40;0.20;;;15.00;1.40;;;16.60;100.00;95795.82;645721;216;31697;-70
2021/08/31 09:05:30;;;;;;;0.40;0.20;;;15.10;1.40;;;16.65;100.00;95795.44;645923;216;31462;-71
2021/08/31 09:08:11;;;;;;;0.40;0.20;;;15.40;1.40;;;17.05;100.00;95792.73;646879;212;31471;-72
2021/08/31 09:10:53;;;;;;;0.40;0.20;;;15.80;1.40;;;17.38;100.00;95792.26;645235;216;31678;-71
2021/08/31 09:13:35;;;;;;;0.40;0.20;;;15.80;1.40;;;17.20;100.00;95791.70;646545;216;31489;-70
2021/08/31 09:16:21;;;;;;;0.40;0.20;;;15.60;1.40;;;17.53;100.00;95792.73;647800;216;31493;-72
2021/08/31 09:19:03;;;;;;;0.40;0.20;;;16.10;1.40;;;18.11;100.00;95796.34;617775;226;31815;-71
2021/08/31 09:21:47;;;;;;;0.40;0.25;;;16.50;1.40;;;18.03;100.00;95793.61;646218;213;32574;-70
2021/08/31 09:24:26;;;;;;;1.20;0.40;;;15.90;1.40;;;17.99;100.00;95792.14;646558;216;31613;-71
2021/08/31 09:27:11;;;;;;;0.40;0.20;;;16.00;1.40;;;18.24;100.00;95797.17;647011;212;31484;-71
2021/08/31 09:29:52;;;;;;;0.40;0.20;;;16.10;1.40;;;18.64;100.00;95807.09;645744;216;31479;-71
2021/08/31 09:32:34;;;;;;;0.40;0.20;;;16.70;1.40;;;18.45;100.00;95808.47;647001;212;31815;-71
2021/08/31 09:36:01;;;;;;;0.40;0.20;;;16.50;1.40;;;18.33;100.00;95810.16;646836;216;31516;-71
2021/08/31 09:38:50;;;;;;;0.40;0.20;;;16.60;1.40;;;19.05;100.00;95807.61;645018;212;31517;-70
2021/08/31 09:41:40;;;;;;;0.40;0.20;;;17.00;1.40;;;19.10;97.62;95809.58;645969;216;31469;-71
2021/08/31 09:44:22;;;;;;;0.40;0.20;;;17.90;1.40;;;20.05;94.81;95809.00;646236;212;31481;-71
2021/08/31 09:47:04;;;;;;;0.40;0.20;;;19.00;1.40;;;21.41;88.53;95805.38;647643;212;31473;-71
2021/08/31 09:49:45;;;;;;;0.50;0.30;;;19.50;1.40;;;21.45;79.16;95803.20;644894;216;31598;-70
2021/08/31 09:52:27;;;;;;;0.40;0.20;;;20.70;1.40;;;22.84;80.76;95797.06;647279;212;31601;-72
2021/08/31 09:55:09;;;;;;;0.40;0.20;;;20.60;1.40;;;23.17;78.53;95799.16;646338;216;31864;-71
2021/08/31 09:57:50;;;;;;;0.40;0.20;;;21.70;1.40;;;23.20;67.97;95798.83;618465;226;31808;-71
2021/08/31 10:03:06;;;;;;;0.40;0.20;;;22.80;1.40;;;26.15;67.28;95786.20;646341;212;31802;-71
2021/08/31 10:05:48;;;;;;;0.40;0.20;;;22.30;1.40;;;24.57;60.97;95792.05;618896;226;31789;-72
2021/08/31 10:08:32;;;;;;;0.40;0.20;;;19.90;1.40;;;21.70;73.35;95796.06;646029;212;31720;-72
2021/08/31 10:11:13;;;;;;;0.40;0.20;;;17.90;1.40;;;19.99;80.90;95806.73;645952;212;31540;-72
2021/08/31 10:13:55;;;;;;;0.40;0.20;;;17.10;1.40;;;22.26;72.87;95806.15;615961;226;31913;-72
2021/08/31 10:16:36;;;;;;;0.40;0.20;;;21.70;1.40;;;23.44;64.06;95801.87;645257;216;42108;-72
2021/08/31 10:19:18;;;;;;;0.40;0.20;;;20.60;1.40;;;23.40;69.15;95806.05;617734;225;32221;-71
2021/08/31 10:22:00;;;;;;;0.40;0.20;;;20.80;1.40;;;23.30;66.04;95807.50;646153;216;31965;-71
2021/08/31 10:24:43;;;;;;;0.50;0.20;;;20.30;1.40;;;22.33;70.17;95808.84;646348;216;42184;-71
2021/08/31 10:27:29;;;;;;;0.60;0.30;;;18.90;1.40;;;20.65;74.84;95814.70;645176;212;31540;-72
2021/08/31 10:30:27;;;;;;;0.40;0.20;;;17.50;1.40;;;19.93;80.13;95816.26;646870;212;31475;-71
2021/08/31 10:35:51;;;;;;;0.40;0.20;;;16.00;1.40;;;17.95;93.31;95830.30;646589;212;31618;-71
2021/08/31 10:38:43;;;;;;;0.40;0.20;;;15.70;1.40;;;17.57;95.65;95834.10;646322;212;31707;-71
2021/08/31 10:41:34;;;;;;;0.40;0.20;;;15.50;1.40;;;17.59;96.92;95838.77;646556;216;31505;-71
2021/08/31 10:44:16;;;;;;;0.40;0.20;;;15.60;1.40;;;17.75;94.44;95839.50;645247;216;31472;-72
2021/08/31 10:47:12;;;;;;;0.40;0.20;;;15.80;1.40;;;18.47;91.52;95839.34;645445;212;31477;-72
2021/08/31 10:50:15;;;;;;;0.40;0.30;;;16.50;1.40;;;19.47;87.06;95837.25;645930;212;31500;-71
2021/08/31 10:53:04;;;;;;;0.40;0.20;;;17.50;1.40;;;20.77;80.43;95842.70;647270;216;42379;-71
2021/08/31 10:55:47;;;;;;;0.40;0.20;;;18.30;1.40;;;21.42;77.02;95839.52;646173;213;42142;-72
2021/08/31 10:58:36;;;;;;;0.40;0.20;;;19.10;1.40;;;21.97;74.42;95837.12;646904;216;42092;-71
2021/08/31 11:01:15;;;;;;;0.40;0.20;;;19.80;1.40;;;23.19;70.12;95834.12;647680;216;31487;-72
2021/08/31 11:03:57;;;;;;;0.40;0.20;;;20.30;1.40;;;22.01;72.59;95842.65;646627;212;31660;-71
2021/08/31 11:06:38;;;;;;;0.40;0.20;;;18.90;1.40;;;21.25;73.18;95836.38;646627;216;32217;-70
2021/08/31 11:09:20;;;;;;;0.40;0.20;;;18.00;1.40;;;20.59;79.18;95838.65;646183;212;32098;-72
2021/08/31 11:12:02;;;;;;;0.40;0.20;;;17.80;1.40;;;20.82;79.31;95845.92;646477;216;32369;-71
2021/08/31 11:14:46;;;;;;;0.60;0.60;;;18.20;1.40;;;21.18;77.91;95846.59;646361;212;32035;-71
2021/08/31 11:17:29;;;;;;;0.40;0.20;;;18.50;1.40;;;20.96;76.38;95849.52;646460;212;31589;-71
2021/08/31 11:20:13;;;;;;;0.40;0.20;;;18.60;1.40;;;20.72;78.04;95847.80;646704;216;31663;-71
2021/08/31 11:23:19;;;;;;;0.40;0.20;;;18.80;1.40;;;22.13;72.02;95853.94;646964;216;31624;-72
2021/08/31 11:26:02;;;;;;;0.40;0.20;;;19.40;1.40;;;21.73;70.28;95857.63;645461;216;31509;-72
2021/08/31 11:28:42;;;;;;;0.40;0.20;;;18.70;1.40;;;20.50;71.90;95869.86;645410;212;31469;-72
2021/08/31 11:31:27;;;;;;;0.50;0.40;;;17.60;1.40;;;19.47;76.99;95871.95;646386;216;31602;-72
2021/08/31 11:35:53;;;;;;;0.40;0.20;;;16.60;1.40;;;18.43;86.85;95876.95;646757;212;31509;-73
2021/08/31 11:38:37;;;;;;;0.40;0.20;;;16.60;1.40;;;18.40;84.91;95878.72;645496;216;31512;-72
2021/08/31 11:44:01;;;;;;;0.40;0.20;;;16.30;1.40;;;18.43;85.33;95877.65;645642;216;31542;-72
2021/08/31 11:46:45;;;;;;;0.40;0.20;;;16.20;1.40;;;17.94;86.68;95877.61;619274;226;31800;-72
2021/08/31 11:49:27;;;;;;;0.40;0.20;;;15.90;1.40;;;17.73;88.20;95884.69;646132;212;31464;-71
2021/08/31 11:52:12;;;;;;;0.40;0.20;;;15.90;1.40;;;17.35;89.99;95893.08;645936;216;31502;-71
2021/08/31 11:54:56;;;;;;;0.40;0.20;;;15.70;1.40;;;17.46;91.75;95892.51;619405;226;32390;-71
2021/08/31 11:57:37;;;;;;;0.40;0.20;;;15.70;1.40;;;17.61;92.68;95897.53;644743;216;31479;-72
2021/08/31 12:02:52;;;;;;;0.40;0.20;;;15.40;1.40;;;16.49;100.00;95905.06;646441;216;31475;-71
2021/08/31 12:05:37;;;;;;;0.40;0.20;;;15.00;1.40;;;15.97;100.00;95913.86;646763;213;31460;-72